Time;durP1;ratioP1;P1;durP2;ratioP2;P2;SDS_P1;SDS_P2;PMS_P1;PMS_P2;Temp;Humidity;BMP_temperature;BMP_pressure;BME280_temperature;BME280_humidity;BME280_pressure;Samples;Min_cycle;Max_cycle;Signal;HPM_P1;HPM_P2
2021/12/09 03:30:25;;;;;;;;;0.33;0.33;;;;;4.98;70.92;100250.13;5298856;23;45242;-96
2021/12/09 03:32:52;;;;;;;;;0.67;0.67;;;;;5.09;69.35;100265.47;4929448;28;45570;-96
2021/12/09 03:35:18;;;;;;;;;1.00;1.00;;;;;5.08;70.88;100272.38;4940637;28;47238;-96
2021/12/09 03:37:44;;;;;;;;;1.67;0.67;;;;;5.00;71.00;100261.50;4941531;28;45573;-96
2021/12/09 03:40:11;;;;;;;;;1.33;0.33;;;;;5.13;70.31;100276.16;4943793;28;44811;-96
2021/12/09 03:42:38;;;;;;;;;0.00;0.00;;;;;5.09;70.86;100266.38;4960650;28;45526;-96
2021/12/09 03:45:04;;;;;;;;;1.00;1.00;;;;;5.12;70.11;100265.66;4925962;28;47542;-96
2021/12/09 03:47:32;;;;;;;;;0.33;0.33;;;;;5.03;70.16;100251.28;4955780;28;45402;-96
2021/12/09 03:49:59;;;;;;;;;0.33;0.33;;;;;5.20;70.80;100277.44;4927371;28;44820;-96
2021/12/09 03:52:26;;;;;;;;;2.00;0.00;;;;;5.30;70.07;100294.50;4924224;28;44926;-96
2021/12/09 03:54:53;;;;;;;;;1.67;0.00;;;;;5.15;69.43;100273.66;4946209;28;46562;-96
2021/12/09 03:57:19;;;;;;;;;0.00;0.00;;;;;5.08;70.33;100269.78;4947046;28;44762;-96
2021/12/09 03:59:46;;;;;;;;;1.00;1.00;;;;;5.03;69.74;100258.19;4937989;28;45393;-96
2021/12/09 04:02:13;;;;;;;;;1.33;1.33;;;;;5.03;69.64;100266.00;4946568;28;45220;-96
2021/12/09 04:04:39;;;;;;;;;1.00;1.00;;;;;4.95;70.21;100262.06;4928718;28;47372;-96
2021/12/09 04:07:05;;;;;;;;;1.00;1.00;;;;;4.92;71.05;100254.97;4936111;28;45186;-96
2021/12/09 04:09:32;;;;;;;;;1.00;1.00;;;;;4.96;70.09;100253.44;4912051;28;45378;-96
2021/12/09 04:11:57;;;;;;;;;0.67;0.67;;;;;4.95;70.61;100257.72;4925224;28;45045;-96
2021/12/09 04:14:23;;;;;;;;;1.67;1.00;;;;;4.96;70.34;100256.03;4930839;28;47107;-96
2021/12/09 04:16:50;;;;;;;;;2.67;1.00;;;;;4.95;70.93;100254.25;4928781;28;44996;-96
2021/12/09 04:19:15;;;;;;;;;2.67;1.00;;;;;5.24;70.82;100308.03;4962160;28;45446;-96
2021/12/09 04:21:42;;;;;;;;;0.00;0.00;;;;;5.01;68.96;100278.03;4956099;28;45617;-96
2021/12/09 04:24:10;;;;;;;;;2.00;0.00;;;;;5.02;70.23;100274.63;4950739;28;47191;-96
2021/12/09 04:26:38;;;;;;;;;1.67;1.67;;;;;5.03;69.29;100268.59;4945165;28;45300;-96
2021/12/09 04:29:04;;;;;;;;;1.00;0.00;;;;;5.17;69.72;100295.47;4945116;28;45446;-96
2021/12/09 04:31:30;;;;;;;;;0.00;0.00;;;;;4.99;69.94;100259.72;4940654;28;44946;-96
2021/12/09 04:33:56;;;;;;;;;2.00;1.00;;;;;5.11;68.25;100282.97;4924999;28;48119;-96
2021/12/09 04:36:23;;;;;;;;;2.00;1.00;;;;;5.13;69.27;100285.66;4945003;28;44858;-96
2021/12/09 04:38:49;;;;;;;;;2.33;1.00;;;;;5.17;69.18;100297.16;4947490;28;45192;-96
2021/12/09 04:41:16;;;;;;;;;1.00;0.67;;;;;5.04;68.90;100273.00;4938485;28;45590;-96
2021/12/09 04:43:42;;;;;;;;;2.00;2.00;;;;;5.03;69.33;100272.09;4960851;28;47446;-96
2021/12/09 04:46:09;;;;;;;;;1.00;1.00;;;;;5.18;69.76;100291.16;4946525;28;45411;-96
2021/12/09 04:48:35;;;;;;;;;1.00;1.00;;;;;5.08;70.42;100268.88;4962973;28;45355;-96
2021/12/09 04:51:01;;;;;;;;;0.67;0.67;;;;;5.03;69.84;100266.00;4951935;28;45543;-96
2021/12/09 04:53:28;;;;;;;;;2.00;0.67;;;;;5.20;69.73;100300.84;4933074;28;45640;-96
2021/12/09 04:55:54;;;;;;;;;1.00;1.00;;;;;5.21;70.47;100286.13;4947250;28;45467;-96
2021/12/09 04:58:20;;;;;;;;;1.00;1.00;;;;;5.13;68.64;100277.84;4962647;28;45404;-96
2021/12/09 05:00:48;;;;;;;;;2.00;2.00;;;;;5.27;69.75;100302.13;4962492;28;45416;-96
2021/12/09 05:03:14;;;;;;;;;1.67;1.00;;;;;5.13;68.36;100281.34;4951580;28;45814;-96
2021/12/09 05:05:44;;;;;;;;;3.00;1.00;;;;;5.12;69.81;100274.38;4951881;28;45338;-96
2021/12/09 05:08:13;;;;;;;;;1.00;1.00;;;;;5.11;69.82;100267.38;4952135;28;44863;-96
2021/12/09 05:13:28;;;;;;;;;1.00;0.00;;;;;5.29;69.42;100295.28;4968185;28;45005;-96
2021/12/09 05:15:56;;;;;;;;;1.00;1.00;;;;;5.28;69.51;100288.31;4956635;28;44832;-96
2021/12/09 05:18:22;;;;;;;;;1.00;1.00;;;;;5.12;69.41;100268.28;4977447;28;45181;-96
2021/12/09 05:20:51;;;;;;;;;4.67;0.67;;;;;5.09;69.93;100255.06;4958852;28;45483;-96
2021/12/09 05:23:59;;;;;;;;;2.00;0.33;;;;;5.30;70.25;100304.91;4952992;28;47327;-96
2021/12/09 05:27:23;;;;;;;;;1.33;1.33;;;;;5.30;70.07;100291.88;4961744;28;44787;-96
2021/12/09 05:30:03;;;;;;;;;1.00;1.00;;;;;5.18;70.40;100272.94;4978367;28;44837;-96
2021/12/09 05:32:30;;;;;;;;;3.00;0.33;;;;;5.43;70.09;100319.56;4961219;28;44880;-96
2021/12/09 05:35:08;;;;;;;;;1.00;1.00;;;;;5.20;69.25;100274.84;4926815;28;47215;-96
2021/12/09 05:37:44;;;;;;;;;2.00;1.00;;;;;5.45;70.30;100327.44;4942329;28;44804;-96
2021/12/09 05:40:31;;;;;;;;;1.33;1.00;;;;;5.47;69.49;100328.41;4958246;28;45480;-96
2021/12/09 05:43:09;;;;;;;;;3.67;1.67;;;;;5.25;69.06;100290.72;4954221;28;44853;-96
2021/12/09 05:45:41;;;;;;;;;5.33;1.00;;;;;5.22;69.38;100290.53;4958183;28;45829;-96
2021/12/09 05:48:09;;;;;;;;;3.67;2.00;;;;;5.28;69.02;100284.81;4941016;28;44732;-96
2021/12/09 05:53:10;;;;;;;;;1.00;1.00;;;;;5.32;68.06;100311.09;5003148;23;45113;-96
2021/12/09 05:55:43;;;;;;;;;0.00;0.00;;;;;5.30;69.46;100307.50;4961406;28;45623;-96
2021/12/09 05:58:18;;;;;;;;;2.00;2.00;;;;;5.39;69.24;100325.38;4943071;28;44677;-96
2021/12/09 06:00:49;;;;;;;;;5.00;0.00;;;;;5.24;69.35;100295.03;4940669;28;44748;-96
2021/12/09 06:03:16;;;;;;;;;4.33;2.00;;;;;5.25;68.82;100298.53;4925920;28;44904;-96
2021/12/09 06:05:46;;;;;;;;;2.00;1.00;;;;;5.20;68.83;100293.06;4925113;28;47509;-96
2021/12/09 06:08:20;;;;;;;;;1.67;1.67;;;;;5.45;68.66;100333.56;4925470;28;44785;-96
2021/12/09 06:10:51;;;;;;;;;1.67;1.67;;;;;5.19;68.63;100298.16;4954430;28;44872;-96
2021/12/09 06:13:21;;;;;;;;;1.00;1.00;;;;;5.40;67.83;100347.09;4957630;28;44934;-96
2021/12/09 06:15:55;;;;;;;;;2.00;2.00;;;;;5.16;68.53;100308.34;4941928;28;45572;-96
2021/12/09 06:18:23;;;;;;;;;2.00;1.00;;;;;5.11;69.20;100308.09;4939887;28;44841;-96
2021/12/09 06:21:18;;;;;;;;;4.00;2.00;;;;;5.08;69.07;100311.41;4947564;28;44819;-96
2021/12/09 06:23:45;;;;;;;;;1.33;1.33;;;;;5.18;69.63;100330.19;4942855;28;44823;-96
2021/12/09 06:26:12;;;;;;;;;3.00;2.00;;;;;5.08;70.35;100307.91;4963067;28;45480;-96
2021/12/09 06:28:56;;;;;;;;;2.00;2.00;;;;;5.07;69.44;100309.63;4958108;28;44889;-96
2021/12/09 06:31:26;;;;;;;;;2.00;2.00;;;;;5.02;69.13;100309.34;4960833;28;44811;-96
2021/12/09 06:34:26;;;;;;;;;1.33;1.33;;;;;5.02;69.00;100322.38;4960307;28;44873;-96
2021/12/09 06:37:25;;;;;;;;;4.33;1.00;;;;;5.02;69.09;100327.56;4960693;28;47089;-96
2021/12/09 06:47:37;;;;;;;;;3.00;3.00;;;;;4.87;69.57;100319.69;5903060;23;46790;-96
2021/12/09 06:50:04;;;;;;;;;1.75;1.75;;;;;5.02;69.50;100358.78;4940756;28;45413;-85
2021/12/09 06:52:29;;;;;;;;;1.33;1.33;;;;;5.01;69.32;100356.97;4915265;28;45424;-85
2021/12/09 06:54:55;;;;;;;;;4.33;2.00;;;;;5.03;69.47;100364.84;4915416;28;45452;-85
2021/12/09 06:57:20;;;;;;;;;6.00;2.00;;;;;5.07;70.12;100373.75;4914829;28;45590;-85
2021/12/09 06:59:45;;;;;;;;;3.00;3.00;;;;;5.05;69.75;100371.03;4914865;28;45789;-82
2021/12/09 07:02:11;;;;;;;;;5.00;3.00;;;;;5.11;69.43;100373.13;4914419;28;45477;-84
2021/12/09 07:04:36;;;;;;;;;5.00;3.00;;;;;5.11;69.66;100373.13;4915695;28;51837;-82
2021/12/09 07:07:01;;;;;;;;;5.00;2.00;;;;;5.16;70.08;100365.59;4913225;28;49062;-82
2021/12/09 07:09:29;;;;;;;;;6.50;3.00;;;;;5.16;68.64;100373.41;4929492;28;45963;-83
2021/12/09 07:11:56;;;;;;;;;2.00;2.00;;;;;5.10;69.77;100372.22;4914967;28;45369;-85
2021/12/09 07:14:21;;;;;;;;;3.00;1.00;;;;;5.12;69.31;100369.75;4914882;28;45551;-82
2021/12/09 07:16:47;;;;;;;;;2.00;2.00;;;;;5.09;69.69;100378.25;4914299;28;46287;-84
2021/12/09 07:19:12;;;;;;;;;1.67;1.67;;;;;5.08;68.28;100373.84;4913578;28;45547;-83
2021/12/09 07:21:38;;;;;;;;;2.75;2.25;;;;;5.06;69.38;100384.97;4913749;28;45511;-83
2021/12/09 07:24:04;;;;;;;;;3.50;3.50;;;;;5.05;69.72;100384.06;4914207;28;45716;-83
2021/12/09 07:26:30;;;;;;;;;2.75;2.75;;;;;5.05;70.70;100381.44;4914304;28;46840;-83
2021/12/09 07:28:56;;;;;;;;;5.75;5.00;;;;;5.07;69.41;100387.69;4915439;28;45565;-82
2021/12/09 07:31:24;;;;;;;;;0.75;0.00;;;;;5.08;69.85;100379.06;4919429;28;45878;-83
2021/12/09 07:33:49;;;;;;;;;5.00;3.00;;;;;5.10;70.47;100374.84;4927864;28;47185;-83
2021/12/09 07:36:15;;;;;;;;;7.25;3.50;;;;;5.10;69.35;100368.75;4912730;28;46655;-84
2021/12/09 07:38:41;;;;;;;;;6.00;4.25;;;;;5.06;69.31;100370.25;4914559;28;45535;-83
2021/12/09 07:41:07;;;;;;;;;5.00;5.00;;;;;5.10;68.75;100376.56;4923344;28;45387;-83
2021/12/09 07:43:32;;;;;;;;;5.00;5.00;;;;;5.06;68.62;100371.94;4906300;28;45494;-84
2021/12/09 07:45:58;;;;;;;;;3.00;3.00;;;;;5.03;68.83;100367.47;4912272;28;46291;-84
2021/12/09 07:48:24;;;;;;;;;6.50;5.00;;;;;5.08;69.09;100378.13;4907452;28;45595;-85
2021/12/09 07:50:49;;;;;;;;;6.75;6.00;;;;;5.07;68.72;100377.28;4902792;28;45693;-83
2021/12/09 07:53:17;;;;;;;;;6.75;5.00;;;;;5.10;69.82;100374.84;4909256;28;45448;-84
2021/12/09 07:55:43;;;;;;;;;5.00;2.75;;;;;5.12;69.18;100373.25;4908356;28;46673;-85
2021/12/09 07:58:08;;;;;;;;;10.25;6.75;;;;;5.13;69.24;100376.72;4912241;28;45669;-85
2021/12/09 08:00:34;;;;;;;;;6.50;6.25;;;;;5.19;69.45;100379.72;4910427;28;45942;-85
2021/12/09 08:03:02;;;;;;;;;3.00;2.25;;;;;5.20;68.71;100383.22;4908435;28;45605;-85
2021/12/09 08:05:30;;;;;;;;;5.00;3.25;;;;;5.20;68.30;100380.63;4909077;28;48370;-85
2021/12/09 08:07:55;;;;;;;;;3.25;3.25;;;;;5.19;69.06;100379.72;4925115;28;45690;-85
2021/12/09 08:10:22;;;;;;;;;4.00;4.00;;;;;5.24;68.91;100398.22;4913440;28;46582;-85
2021/12/09 08:12:48;;;;;;;;;6.25;4.00;;;;;5.26;68.40;100399.19;4908322;28;46448;-84
2021/12/09 08:15:15;;;;;;;;;7.00;5.25;;;;;5.21;69.15;100396.31;4913176;28;45507;-84
2021/12/09 08:20:09;;;;;;;;;5.25;5.25;;;;;5.34;69.33;100400.56;4913949;28;45391;-84
2021/12/09 08:22:34;;;;;;;;;6.25;5.25;;;;;5.34;69.49;100387.56;4915829;28;45539;-84
2021/12/09 08:25:01;;;;;;;;;3.00;3.00;;;;;5.40;68.98;100389.66;4914274;28;46159;-84
2021/12/09 08:27:28;;;;;;;;;6.00;6.00;;;;;5.45;69.54;100380.41;4922024;28;45310;-84
2021/12/09 08:29:54;;;;;;;;;4.50;4.50;;;;;5.49;68.66;100381.47;4935038;28;45487;-85
2021/12/09 08:32:20;;;;;;;;;6.75;3.50;;;;;5.52;69.11;100384.25;4924628;28;45375;-84
2021/12/09 08:34:46;;;;;;;;;5.50;4.50;;;;;5.54;68.09;100386.97;4915896;28;45591;-84
2021/12/09 08:37:11;;;;;;;;;5.33;4.00;;;;;5.57;67.39;100392.34;4925217;28;45527;-84
2021/12/09 08:39:37;;;;;;;;;6.00;3.00;;;;;5.57;67.50;100388.03;4938291;28;45663;-84
2021/12/09 08:42:03;;;;;;;;;5.00;2.67;;;;;5.61;68.39;100396.94;4940199;28;45436;-85
2021/12/09 08:44:28;;;;;;;;;5.50;5.50;;;;;5.61;68.99;100396.06;4911185;28;47271;-87
2021/12/09 08:46:54;;;;;;;;;6.00;3.67;;;;;5.64;67.71;100396.25;4932887;28;55980;-84
2021/12/09 08:49:19;;;;;;;;;7.33;2.67;;;;;5.65;68.47;100391.13;4928764;28;45451;-84
2021/12/09 08:51:45;;;;;;;;;5.00;3.00;;;;;5.76;67.92;100411.69;4926712;28;45491;-84
2021/12/09 08:54:13;;;;;;;;;3.00;2.00;;;;;5.81;68.35;100413.78;4927187;28;46620;-84
2021/12/09 08:56:39;;;;;;;;;6.00;5.00;;;;;5.86;67.65;100410.53;4941605;28;46049;-84
2021/12/09 08:59:05;;;;;;;;;5.67;4.33;;;;;5.93;67.88;100416.19;4942296;28;45364;-83
2021/12/09 09:01:32;;;;;;;;;2.33;2.00;;;;;6.01;67.04;100418.34;4924939;28;45473;-84
2021/12/09 09:03:58;;;;;;;;;5.00;5.00;;;;;5.96;68.40;100409.34;4914369;28;46425;-84
2021/12/09 09:06:23;;;;;;;;;5.00;5.00;;;;;6.06;67.69;100421.22;4910016;28;45435;-84
2021/12/09 09:08:51;;;;;;;;;2.67;2.33;;;;;6.09;66.92;100429.25;4918938;28;45520;-84
2021/12/09 09:11:17;;;;;;;;;6.00;3.67;;;;;6.10;66.09;100433.66;4918269;28;45618;-84
2021/12/09 09:13:42;;;;;;;;;2.75;2.75;;;;;6.10;67.25;100429.34;4921266;28;45486;-85
2021/12/09 09:16:08;;;;;;;;;2.00;2.00;;;;;6.17;67.79;100450.53;4912098;28;45480;-85
2021/12/09 09:18:33;;;;;;;;;5.00;3.00;;;;;6.22;66.43;100451.72;4927840;28;45453;-84
2021/12/09 09:20:59;;;;;;;;;3.00;3.00;;;;;6.23;67.82;100451.81;4929325;28;45436;-84
2021/12/09 09:23:25;;;;;;;;;5.00;2.00;;;;;6.22;66.13;100441.28;4911261;28;46262;-85
2021/12/09 09:25:51;;;;;;;;;6.33;3.00;;;;;6.25;65.43;100454.50;4929213;28;45392;-86
2021/12/09 09:28:17;;;;;;;;;4.67;3.67;;;;;6.28;66.56;100453.78;4912009;28;45414;-85
2021/12/09 09:30:48;;;;;;;;;6.33;5.00;;;;;6.33;67.36;100452.34;4925787;28;45493;-84
2021/12/09 09:33:15;;;;;;;;;1.67;1.67;;;;;6.36;67.27;100457.75;4924600;28;46434;-82
2021/12/09 09:35:43;;;;;;;;;5.00;3.00;;;;;6.41;66.29;100458.91;4935079;28;45249;-84
2021/12/09 09:38:09;;;;;;;;;3.00;3.00;;;;;6.41;66.82;100451.09;4925751;28;45312;-85
2021/12/09 09:40:41;;;;;;;;;8.67;5.00;;;;;6.41;67.00;100452.78;4916786;28;45597;-84
2021/12/09 09:43:26;;;;;;;;;7.00;5.00;;;;;6.47;65.42;100468.78;4905971;28;47397;-84
2021/12/09 09:45:53;;;;;;;;;3.00;3.00;;;;;6.48;67.24;100471.50;4922997;28;45417;-84
2021/12/09 09:48:19;;;;;;;;;7.00;6.00;;;;;6.48;66.92;100466.28;4931027;28;45603;-84
2021/12/09 09:50:44;;;;;;;;;3.00;3.00;;;;;6.52;66.61;100474.28;4913039;28;45605;-84
2021/12/09 09:53:10;;;;;;;;;2.33;2.00;;;;;6.56;66.81;100487.56;4920169;28;47153;-85
2021/12/09 09:55:36;;;;;;;;;2.00;2.00;;;;;6.58;65.19;100482.44;4911241;28;45467;-85
2021/12/09 09:58:02;;;;;;;;;6.00;5.33;;;;;6.61;65.42;100480.00;4916910;28;45518;-84
2021/12/09 10:00:28;;;;;;;;;5.67;4.67;;;;;6.58;67.09;100458.97;4917546;28;46088;-84
2021/12/09 10:02:54;;;;;;;;;4.67;4.67;;;;;6.73;66.91;100484.13;4935248;28;47369;-84
2021/12/09 10:05:28;;;;;;;;;3.00;3.00;;;;;6.74;65.91;100480.69;4918213;28;45620;-84
2021/12/09 10:07:55;;;;;;;;;6.33;4.33;;;;;6.78;66.58;100474.84;4918250;28;45473;-84
2021/12/09 10:10:23;;;;;;;;;5.33;5.33;;;;;6.79;66.60;100467.13;4922474;28;45400;-84
2021/12/09 10:13:07;;;;;;;;;5.00;3.00;;;;;6.81;66.92;100452.44;4919141;28;45545;-84
2021/12/09 10:15:50;;;;;;;;;4.67;4.67;;;;;6.90;66.46;100457.28;4918005;28;45523;-87
2021/12/09 10:18:33;;;;;;;;;5.33;4.33;;;;;6.98;65.98;100460.31;4944440;28;45708;-84
2021/12/09 10:20:59;;;;;;;;;3.33;3.00;;;;;7.06;66.14;100460.72;4920720;28;45358;-83
2021/12/09 10:23:42;;;;;;;;;3.33;3.33;;;;;7.10;65.77;100447.03;4921868;28;47148;-84
2021/12/09 10:26:21;;;;;;;;;6.00;5.00;;;;;7.21;65.58;100450.25;4906700;28;45330;-84
2021/12/09 10:29:05;;;;;;;;;5.00;5.00;;;;;7.21;65.05;100428.47;4919200;28;45660;-85
2021/12/09 10:31:42;;;;;;;;;5.00;2.33;;;;;7.27;65.36;100431.38;4921464;28;45456;-83
2021/12/09 10:37:01;;;;;;;;;5.00;3.00;;;;;7.27;64.51;100415.72;4923663;28;45808;-84
2021/12/09 10:39:41;;;;;;;;;4.67;4.33;;;;;7.34;65.68;100419.56;4939905;28;45614;-84
2021/12/09 10:42:24;;;;;;;;;6.33;2.67;;;;;7.40;66.40;100421.59;4932173;28;45389;-84
2021/12/09 10:45:14;;;;;;;;;6.67;3.33;;;;;7.42;64.99;100414.75;4937777;28;47547;-84
2021/12/09 10:48:02;;;;;;;;;3.67;3.67;;;;;7.44;65.30;100415.72;4939878;28;47403;-84
2021/12/09 10:50:34;;;;;;;;;7.67;5.33;;;;;7.49;65.37;100411.66;4919193;28;45378;-84
2021/12/09 10:53:31;;;;;;;;;6.00;4.67;;;;;7.60;63.47;100410.47;4911008;28;45523;-84
2021/12/09 10:56:13;;;;;;;;;4.00;4.00;;;;;7.68;64.90;100396.94;4911587;28;47609;-84
2021/12/09 10:58:48;;;;;;;;;4.67;4.67;;;;;7.80;64.37;100401.88;4921956;28;45420;-84
2021/12/09 11:01:17;;;;;;;;;7.67;4.67;;;;;7.88;65.17;100411.03;4910633;28;45533;-84
2021/12/09 11:03:50;;;;;;;;;6.00;3.00;;;;;7.99;64.92;100408.06;4922245;28;45587;-83
2021/12/09 11:06:21;;;;;;;;;3.67;2.67;;;;;8.02;64.51;100402.97;4902212;28;47199;-83
2021/12/09 11:08:50;;;;;;;;;6.33;4.33;;;;;8.05;64.39;100403.13;4909660;28;45747;-84
2021/12/09 11:11:18;;;;;;;;;3.33;2.33;;;;;8.09;64.07;100401.56;4906033;28;49418;-83
2021/12/09 11:13:51;;;;;;;;;2.00;2.00;;;;;8.12;64.99;100404.31;4904743;28;45790;-83
2021/12/09 11:16:26;;;;;;;;;2.00;2.00;;;;;8.17;64.16;100392.38;4908518;28;45732;-83
2021/12/09 11:19:05;;;;;;;;;5.33;2.67;;;;;8.20;64.13;100396.84;4909152;28;45481;-84
2021/12/09 11:21:34;;;;;;;;;2.33;2.33;;;;;8.22;62.92;100396.09;4909854;28;45701;-85
2021/12/09 11:24:07;;;;;;;;;2.67;2.67;;;;;8.31;65.18;100389.53;4906178;28;45470;-83
2021/12/09 11:29:18;;;;;;;;;3.33;2.00;;;;;8.48;64.32;100388.63;4914791;28;45554;-83
2021/12/09 11:32:26;;;;;;;;;7.67;2.00;;;;;8.56;63.90;100391.63;4915604;28;45465;-84
2021/12/09 11:34:52;;;;;;;;;2.00;1.00;;;;;8.68;63.06;100399.22;4915485;28;45803;-84
2021/12/09 11:40:07;;;;;;;;;5.33;2.00;;;;;8.73;63.07;100388.97;4911958;28;45751;-83
2021/12/09 11:42:43;;;;;;;;;3.00;3.00;;;;;8.78;60.25;100384.84;4927583;28;45770;-82
2021/12/09 11:45:11;;;;;;;;;1.67;1.67;;;;;8.75;60.60;100379.44;4906334;28;45443;-83
2021/12/09 11:47:39;;;;;;;;;2.67;2.67;;;;;8.77;61.38;100388.25;4912328;28;47825;-82
2021/12/09 11:50:07;;;;;;;;;6.00;1.00;;;;;8.77;60.97;100380.41;4914453;28;45595;-83
2021/12/09 11:52:33;;;;;;;;;2.00;1.00;;;;;8.73;61.76;100375.88;4916490;28;45446;-82
2021/12/09 11:55:04;;;;;;;;;2.00;2.00;;;;;8.73;61.53;100383.72;4927698;28;46075;-83
2021/12/09 11:57:37;;;;;;;;;5.00;2.00;;;;;8.75;62.47;100369.00;4908876;28;47222;-82
2021/12/09 12:12:19;;;;;;;;;2.67;2.67;;;;;8.98;62.30;100368.25;4915475;28;45531;-86
2021/12/09 12:14:48;;;;;;;;;8.33;7.33;;;;;8.93;62.32;100357.56;4912924;28;45324;-87
2021/12/09 12:19:59;;;;;;;;;3.00;3.00;;;;;8.96;62.19;100365.56;4914829;28;45492;-85
2021/12/09 12:26:09;;;;;;;;;6.67;3.33;;;;;8.95;61.14;100353.28;4915153;28;45434;-83
2021/12/09 12:35:01;;;;;;;;;7.33;2.67;;;;;8.85;59.80;100341.50;4915802;28;45414;-83
2021/12/09 12:39:28;;;;;;;;;1.33;1.33;;;;;8.77;61.75;100346.41;4920893;28;45398;-84
2021/12/09 12:42:08;;;;;;;;;3.33;1.33;;;;;8.78;62.02;100349.91;4923008;28;49603;-82
2021/12/09 12:44:34;;;;;;;;;1.00;1.00;;;;;8.77;61.65;100342.88;4914477;28;45456;-83
2021/12/09 12:47:14;;;;;;;;;3.00;2.00;;;;;8.80;62.61;100351.78;4926639;28;45891;-82
2021/12/09 12:49:46;;;;;;;;;2.00;2.00;;;;;8.83;62.85;100348.41;4914554;28;45367;-82
2021/12/09 12:52:26;;;;;;;;;3.00;2.00;;;;;8.87;60.96;100355.56;4928007;28;47126;-82
2021/12/09 12:54:59;;;;;;;;;5.00;2.00;;;;;8.90;62.87;100353.09;4914700;28;45578;-82
2021/12/09 12:57:38;;;;;;;;;3.00;2.00;;;;;8.89;61.27;100343.44;4927169;28;45509;-82
2021/12/09 13:00:10;;;;;;;;;2.00;2.00;;;;;8.92;62.73;100351.44;4947974;28;44824;-82
2021/12/09 13:06:12;;;;;;;;;2.00;2.00;;;;;8.87;63.46;100366.03;4915585;28;45450;-81
2021/12/09 13:08:53;;;;;;;;;3.67;3.00;;;;;8.83;63.19;100343.16;4917556;28;45664;-82
2021/12/09 13:11:41;;;;;;;;;4.00;3.00;;;;;8.85;62.98;100344.13;4920596;28;45574;-82
2021/12/09 13:14:11;;;;;;;;;3.00;3.00;;;;;8.82;63.01;100341.38;4917672;28;45626;-82
2021/12/09 13:17:12;;;;;;;;;5.33;1.33;;;;;8.86;63.98;100348.56;4928834;28;45719;-82
2021/12/09 13:19:52;;;;;;;;;3.00;2.00;;;;;8.82;61.89;100342.28;4921440;28;45558;-82
2021/12/09 13:22:31;;;;;;;;;1.00;1.00;;;;;8.83;62.89;100348.41;4924203;28;45535;-82
2021/12/09 13:25:14;;;;;;;;;5.00;3.00;;;;;8.83;63.56;100345.78;4933396;28;47493;-82
2021/12/09 13:27:50;;;;;;;;;2.00;1.00;;;;;8.78;63.55;100342.97;4918476;28;45555;-81
2021/12/09 13:30:34;;;;;;;;;1.00;1.00;;;;;8.75;63.24;100348.06;4911393;28;45800;-83
2021/12/09 13:49:19;;;;;;;;;5.33;1.67;;;;;8.71;61.67;100343.50;4911964;28;45697;-83
2021/12/09 13:54:25;;;;;;;;;1.67;1.67;;;;;8.77;63.24;100349.00;4911729;28;45465;-83
2021/12/09 13:56:57;;;;;;;;;6.67;3.00;;;;;8.86;63.20;100345.03;4906777;28;45698;-84
2021/12/09 13:59:27;;;;;;;;;2.33;1.00;;;;;8.98;62.81;100339.44;4911387;28;45433;-83
2021/12/09 14:01:55;;;;;;;;;2.00;2.00;;;;;9.02;62.84;100339.66;4909807;28;45361;-83
2021/12/09 14:04:23;;;;;;;;;5.67;3.67;;;;;9.13;63.00;100332.28;4929220;28;45693;-83
2021/12/09 14:07:01;;;;;;;;;2.33;2.00;;;;;9.23;63.54;100330.06;4925677;28;46715;-83
2021/12/09 14:09:29;;;;;;;;;2.33;2.33;;;;;9.23;61.86;100317.88;4902843;28;45581;-83
2021/12/09 14:11:55;;;;;;;;;2.67;2.00;;;;;9.31;61.61;100336.53;4908565;28;45479;-83
2021/12/09 14:14:35;;;;;;;;;3.00;3.00;;;;;9.34;62.29;100318.34;4910700;28;45648;-83
2021/12/09 14:17:04;;;;;;;;;4.00;3.00;;;;;9.34;62.21;100310.50;4910331;28;46298;-83
2021/12/09 14:22:26;;;;;;;;;5.00;2.67;;;;;9.45;62.08;100315.31;4910611;28;45583;-83
2021/12/09 14:24:52;;;;;;;;;4.00;4.00;;;;;9.42;62.49;100299.44;4918067;28;45832;-83
2021/12/09 14:27:19;;;;;;;;;6.00;2.00;;;;;9.48;62.60;100297.09;4912310;28;45923;-83
2021/12/09 14:29:48;;;;;;;;;6.67;5.00;;;;;9.55;62.96;100304.38;4903619;28;45563;-82
2021/12/09 14:32:14;;;;;;;;;8.00;6.00;;;;;9.53;62.67;100292.94;4910683;28;45357;-83
2021/12/09 14:34:49;;;;;;;;;7.00;3.00;;;;;9.63;62.18;100301.19;4926838;28;45537;-83
2021/12/09 14:37:16;;;;;;;;;4.00;4.00;;;;;9.65;63.15;100300.44;4911745;28;45725;-83
2021/12/09 14:39:42;;;;;;;;;7.33;4.33;;;;;9.66;62.13;100297.00;4924770;28;45549;-83
2021/12/09 14:42:19;;;;;;;;;3.00;3.00;;;;;9.64;62.28;100303.88;4922533;28;45515;-83
2021/12/09 14:45:07;;;;;;;;;5.00;2.33;;;;;9.59;60.77;100297.53;4910107;28;45318;-82
2021/12/09 14:47:32;;;;;;;;;2.00;2.00;;;;;9.55;62.19;100313.97;4908495;28;48400;-83
2021/12/09 14:50:03;;;;;;;;;3.00;3.00;;;;;9.49;61.75;100297.16;4923666;28;45722;-83
2021/12/09 14:52:43;;;;;;;;;3.67;2.33;;;;;9.47;62.20;100295.28;4912596;28;45459;-83
2021/12/09 14:55:39;;;;;;;;;7.00;4.00;;;;;9.47;62.70;100303.16;4926934;28;45467;-83
2021/12/09 14:58:09;;;;;;;;;4.00;2.33;;;;;9.38;61.86;100288.81;4911026;28;53697;-83
2021/12/09 15:00:52;;;;;;;;;3.33;2.00;;;;;9.35;62.60;100285.19;4909280;28;45492;-82
2021/12/09 15:03:38;;;;;;;;;3.67;2.00;;;;;9.27;62.03;100275.28;4910190;28;45697;-84
2021/12/09 15:06:06;;;;;;;;;3.67;3.67;;;;;9.22;62.11;100265.44;4905191;28;45864;-83
2021/12/09 15:08:44;;;;;;;;;2.00;2.00;;;;;9.16;62.95;100272.19;4907175;28;48052;-83
2021/12/09 15:11:10;;;;;;;;;1.33;1.33;;;;;9.07;62.44;100263.06;4907309;28;45616;-83
2021/12/09 15:13:47;;;;;;;;;2.00;2.00;;;;;8.99;62.78;100263.63;4912306;28;45804;-83
2021/12/09 15:16:21;;;;;;;;;3.00;1.00;;;;;8.94;61.62;100258.16;4911331;28;45470;-83
2021/12/09 15:18:48;;;;;;;;;2.33;2.33;;;;;8.91;62.30;100259.75;4907446;28;46369;-84
2021/12/09 15:21:26;;;;;;;;;8.33;5.33;;;;;8.81;62.64;100253.22;4907731;28;46697;-84
2021/12/09 15:23:55;;;;;;;;;4.00;3.00;;;;;8.77;62.88;100256.50;4911056;28;45451;-84
2021/12/09 15:26:36;;;;;;;;;2.00;2.00;;;;;8.73;63.06;100267.69;4910788;28;45580;-84
2021/12/09 15:29:07;;;;;;;;;2.00;2.00;;;;;8.68;63.48;100251.78;4909016;28;47600;-84
2021/12/09 15:31:34;;;;;;;;;3.00;3.00;;;;;8.64;62.69;100260.28;4913129;28;46524;-83
2021/12/09 15:34:18;;;;;;;;;4.67;2.67;;;;;8.57;63.12;100260.00;4923912;28;45495;-83
2021/12/09 15:36:55;;;;;;;;;2.33;2.00;;;;;8.56;63.10;100262.53;4921849;28;45726;-84
2021/12/09 15:39:23;;;;;;;;;3.33;3.00;;;;;8.47;63.30;100258.69;4912320;28;47439;-84
2021/12/09 15:42:01;;;;;;;;;4.67;3.00;;;;;8.42;63.74;100256.69;4924662;28;45340;-85
2021/12/09 15:44:26;;;;;;;;;4.67;1.67;;;;;8.35;64.00;100258.13;4903827;28;45525;-83
2021/12/09 15:47:01;;;;;;;;;5.67;4.00;;;;;8.35;63.05;100265.97;4918953;28;45613;-82
2021/12/09 15:49:29;;;;;;;;;3.00;2.33;;;;;8.26;63.65;100259.47;4913042;28;47339;-84
2021/12/09 15:52:00;;;;;;;;;4.33;3.00;;;;;8.19;64.31;100253.88;4907661;28;45895;-84
2021/12/09 15:54:41;;;;;;;;;4.33;3.33;;;;;8.16;64.09;100260.78;4909973;28;45685;-84
2021/12/09 15:57:12;;;;;;;;;3.00;3.00;;;;;8.09;64.51;100257.78;4912421;28;45470;-84
2021/12/09 15:59:39;;;;;;;;;3.00;3.00;;;;;8.01;64.67;100260.94;4927217;28;48780;-84
2021/12/09 16:02:07;;;;;;;;;7.00;4.00;;;;;7.93;64.74;100247.50;4904362;28;45696;-84
2021/12/09 16:04:33;;;;;;;;;6.33;6.00;;;;;7.95;65.10;100258.00;4913746;28;45418;-84
2021/12/09 16:07:00;;;;;;;;;6.00;3.67;;;;;7.93;64.95;100262.28;4907517;28;45712;-84
2021/12/09 16:09:28;;;;;;;;;9.67;8.33;;;;;7.86;65.10;100263.69;4909249;28;46154;-84
2021/12/09 16:11:59;;;;;;;;;6.33;6.00;;;;;7.82;65.34;100267.88;4927458;28;45523;-84
2021/12/09 16:14:26;;;;;;;;;6.00;6.00;;;;;7.77;65.54;100264.13;4913861;28;45892;-84
2021/12/09 16:16:53;;;;;;;;;7.00;6.33;;;;;7.70;65.81;100260.34;4913984;28;45641;-84
2021/12/09 16:19:22;;;;;;;;;6.67;5.00;;;;;7.66;65.53;100250.53;4916622;28;46088;-84
2021/12/09 16:22:18;;;;;;;;;4.00;4.00;;;;;7.65;65.96;100251.38;4926975;28;45412;-83
2021/12/09 16:24:44;;;;;;;;;8.33;7.00;;;;;7.64;65.60;100253.91;4915153;28;45345;-84
2021/12/09 16:27:12;;;;;;;;;6.33;4.67;;;;;7.55;65.37;100249.13;4924007;28;45528;-86
2021/12/09 16:29:37;;;;;;;;;6.00;2.00;;;;;7.47;65.60;100253.97;4927038;28;45433;-84
2021/12/09 16:32:03;;;;;;;;;7.67;6.00;;;;;7.41;66.30;100241.50;4926507;28;45878;-84
2021/12/09 16:34:28;;;;;;;;;7.67;3.00;;;;;7.40;66.69;100244.91;4902692;28;45324;-83
2021/12/09 16:36:54;;;;;;;;;3.33;3.33;;;;;7.36;65.94;100236.06;4913648;28;45402;-84